Time;durP1;ratioP1;P1;durP2;ratioP2;P2;SDS_P1;SDS_P2;PMS_P1;PMS_P2;Temp;Humidity;BMP_temperature;BMP_pressure;BME280_temperature;BME280_humidity;BME280_pressure;Samples;Min_cycle;Max_cycle;Signal;HPM_P1;HPM_P2
2022/07/22 00:01:14;;;;;;;10.43;2.38;;;16.80;99.90;;;;;;5010603;28;20068;-72
2022/07/22 00:03:40;;;;;;;5.22;3.35;;;17.00;99.90;;;;;;5010712;28;20030;-72
2022/07/22 00:06:06;;;;;;;8.88;3.13;;;16.90;99.90;;;;;;4998489;28;20459;-73
2022/07/22 00:08:31;;;;;;;8.95;2.95;;;16.90;99.90;;;;;;5008622;28;20018;-72
2022/07/22 00:10:57;;;;;;;9.60;2.97;;;17.00;99.90;;;;;;5000524;28;20058;-72
2022/07/22 00:13:23;;;;;;;11.18;3.58;;;17.00;99.90;;;;;;5007069;28;20056;-72
2022/07/22 00:15:49;;;;;;;6.90;2.78;;;16.90;99.90;;;;;;5001265;28;20455;-72
2022/07/22 00:18:14;;;;;;;6.38;3.05;;;16.80;99.90;;;;;;5010329;28;20038;-71
2022/07/22 00:20:40;;;;;;;9.80;3.25;;;16.80;99.90;;;;;;5010548;28;20113;-72
2022/07/22 00:23:05;;;;;;;13.85;2.97;;;17.00;99.90;;;;;;4997726;28;20454;-71
2022/07/22 00:25:32;;;;;;;8.57;2.75;;;16.90;99.90;;;;;;5004303;28;20133;-71
2022/07/22 00:27:57;;;;;;;7.28;2.10;;;16.90;99.90;;;;;;4991100;28;20113;-72
2022/07/22 00:30:23;;;;;;;10.07;4.20;;;17.10;99.90;;;;;;5006835;28;20376;-71
2022/07/22 00:32:49;;;;;;;7.75;3.20;;;16.40;99.90;;;;;;5009942;28;20030;-72
2022/07/22 00:35:14;;;;;;;6.93;2.88;;;17.00;99.90;;;;;;5009956;28;20014;-71
2022/07/22 00:37:40;;;;;;;8.63;3.53;;;17.00;99.90;;;;;;5009658;28;20038;-73
2022/07/22 00:40:06;;;;;;;6.55;2.40;;;16.80;99.90;;;;;;5010387;28;20022;-71
2022/07/22 00:42:31;;;;;;;6.38;2.70;;;16.60;99.90;;;;;;5009998;28;20054;-71
2022/07/22 00:44:57;;;;;;;5.95;2.72;;;17.70;99.90;;;;;;4999559;28;20103;-72
2022/07/22 00:47:23;;;;;;;10.48;4.05;;;16.80;99.90;;;;;;5008037;28;20068;-71
2022/07/22 00:49:49;;;;;;;9.05;3.47;;;16.80;99.90;;;;;;5010380;28;20076;-72
2022/07/22 00:52:14;;;;;;;11.05;2.90;;;16.60;99.90;;;;;;5009411;28;20029;-71
2022/07/22 00:54:40;;;;;;;8.15;3.08;;;16.80;99.90;;;;;;5002197;28;20030;-71
2022/07/22 00:57:06;;;;;;;6.47;3.35;;;16.90;99.90;;;;;;5004438;28;20030;-71
2022/07/22 00:59:32;;;;;;;11.38;3.10;;;16.70;99.90;;;;;;5009816;28;20034;-71
2022/07/22 01:01:57;;;;;;;10.82;3.28;;;16.80;99.90;;;;;;5010247;28;20026;-71
2022/07/22 01:04:23;;;;;;;6.63;3.05;;;16.60;99.90;;;;;;5009623;28;20022;-71
2022/07/22 01:06:48;;;;;;;7.43;2.90;;;16.80;99.90;;;;;;5009620;28;20052;-71
2022/07/22 01:09:14;;;;;;;6.82;2.88;;;16.70;99.90;;;;;;5009792;28;20076;-71
2022/07/22 01:11:41;;;;;;;10.85;3.45;;;16.80;99.90;;;;;;5002184;28;20023;-71
2022/07/22 01:14:06;;;;;;;4.43;2.92;;;16.80;99.90;;;;;;4998251;28;20540;-71
2022/07/22 01:16:32;;;;;;;4.93;3.15;;;16.60;99.90;;;;;;5009691;28;20065;-71
2022/07/22 01:18:58;;;;;;;9.18;3.45;;;17.00;99.90;;;;;;4998210;28;20116;-72
2022/07/22 01:21:23;;;;;;;9.88;2.97;;;16.90;99.90;;;;;;4989371;28;20215;-71
2022/07/22 01:23:49;;;;;;;9.15;2.60;;;18.00;99.90;;;;;;5000473;28;20496;-71
2022/07/22 01:26:17;;;;;;;14.70;2.83;;;16.60;99.90;;;;;;4995950;28;20501;-71
2022/07/22 01:28:43;;;;;;;6.93;2.90;;;16.70;99.90;;;;;;5001951;28;20033;-71
2022/07/22 01:31:09;;;;;;;8.05;2.50;;;16.70;99.90;;;;;;5004465;28;20504;-71
2022/07/22 01:33:35;;;;;;;7.60;3.42;;;16.80;99.90;;;;;;5009805;28;20113;-71
2022/07/22 01:36:01;;;;;;;5.63;2.70;;;16.80;99.90;;;;;;4995367;28;20470;-72
2022/07/22 01:38:27;;;;;;;9.10;2.63;;;;;;;;;;5000481;28;20175;-71
2022/07/22 01:40:53;;;;;;;8.85;2.80;;;16.80;99.90;;;;;;4993643;28;20062;-71
2022/07/22 01:43:20;;;;;;;10.70;3.38;;;16.80;99.90;;;;;;5011640;28;20034;-71
2022/07/22 01:45:47;;;;;;;5.78;3.00;;;16.70;99.90;;;;;;5014050;28;20021;-71
2022/07/22 01:48:14;;;;;;;8.18;3.30;;;16.60;99.90;;;;;;5013124;28;20105;-71
2022/07/22 01:50:41;;;;;;;6.75;2.58;;;16.50;99.90;;;;;;5012741;28;20034;-71
2022/07/22 01:53:06;;;;;;;3.70;2.55;;;16.40;99.90;;;;;;4995689;28;20045;-71
2022/07/22 01:55:32;;;;;;;6.50;3.67;;;16.40;99.90;;;;;;4982268;28;20046;-71
2022/07/22 01:57:58;;;;;;;5.75;3.45;;;16.50;99.90;;;;;;4994023;28;20046;-71
2022/07/22 02:00:23;;;;;;;7.72;3.70;;;16.40;99.90;;;;;;4999906;28;20022;-71
2022/07/22 02:02:49;;;;;;;7.15;2.97;;;17.50;99.90;;;;;;4994873;28;20169;-72
2022/07/22 02:05:14;;;;;;;7.28;3.58;;;16.30;99.90;;;;;;4998302;28;20470;-71
2022/07/22 02:07:40;;;;;;;6.47;3.45;;;16.60;99.90;;;;;;4994568;28;20049;-71
2022/07/22 02:10:06;;;;;;;5.78;2.85;;;16.60;99.90;;;;;;4996992;28;20022;-71
2022/07/22 02:12:32;;;;;;;6.35;2.88;;;16.60;99.90;;;;;;4995890;28;20839;-71
2022/07/22 02:14:58;;;;;;;8.63;3.63;;;16.60;99.90;;;;;;4995003;28;20105;-71
2022/07/22 02:17:24;;;;;;;8.38;3.30;;;16.60;99.90;;;;;;5004483;28;20033;-72
2022/07/22 02:19:49;;;;;;;11.02;3.60;;;16.40;99.90;;;;;;4992601;28;20480;-71
2022/07/22 02:22:18;;;;;;;7.70;2.90;;;16.40;99.90;;;;;;4998625;28;20029;-72
2022/07/22 02:24:43;;;;;;;11.75;3.63;;;16.30;99.90;;;;;;5000543;28;20507;-72
2022/07/22 02:27:09;;;;;;;14.07;3.17;;;16.50;99.90;;;;;;4997591;28;20048;-71
2022/07/22 02:29:35;;;;;;;7.38;2.80;;;16.10;99.90;;;;;;5002414;28;20018;-72
2022/07/22 02:32:00;;;;;;;12.68;2.90;;;16.10;99.90;;;;;;5004943;28;20436;-71
2022/07/22 02:34:26;;;;;;;14.40;4.20;;;16.20;99.90;;;;;;5009748;28;20033;-72
2022/07/22 02:36:52;;;;;;;6.80;3.15;;;16.20;99.90;;;;;;5002684;28;20360;-71
2022/07/22 02:39:18;;;;;;;10.68;3.53;;;16.30;99.90;;;;;;5008293;28;20053;-71
2022/07/22 02:41:43;;;;;;;6.13;2.90;;;16.20;99.90;;;;;;5004528;28;20022;-72
2022/07/22 02:44:09;;;;;;;12.07;3.63;;;15.60;99.90;;;;;;5006691;28;20034;-72
2022/07/22 02:46:35;;;;;;;7.00;3.28;;;16.50;99.90;;;;;;5012259;28;20097;-72
2022/07/22 02:49:01;;;;;;;4.55;2.78;;;16.10;99.90;;;;;;5011879;28;20026;-71
2022/07/22 02:51:26;;;;;;;9.77;3.45;;;16.20;99.90;;;;;;5009286;28;20376;-72
2022/07/22 02:53:52;;;;;;;8.93;3.08;;;16.40;99.90;;;;;;4995167;28;20502;-71
2022/07/22 02:56:19;;;;;;;5.32;2.38;;;16.40;99.90;;;;;;4994569;28;20030;-71
2022/07/22 02:58:46;;;;;;;9.63;2.97;;;16.30;99.90;;;;;;5000968;28;20026;-71
2022/07/22 03:01:12;;;;;;;8.80;2.80;;;16.40;99.90;;;;;;5011862;28;20029;-72
2022/07/22 03:03:38;;;;;;;7.72;2.95;;;16.20;99.90;;;;;;5011395;28;20088;-72
2022/07/22 03:06:04;;;;;;;5.88;2.70;;;16.20;99.90;;;;;;4999526;28;20034;-71
2022/07/22 03:08:30;;;;;;;8.38;2.35;;;16.20;99.90;;;;;;5005069;28;20454;-71
2022/07/22 03:10:56;;;;;;;10.02;3.33;;;16.30;99.90;;;;;;5001830;28;20039;-72
2022/07/22 03:13:21;;;;;;;6.45;2.47;;;16.20;99.90;;;;;;5008034;28;20426;-71
2022/07/22 03:15:47;;;;;;;4.47;1.95;;;16.50;99.90;;;;;;5011908;28;20378;-71
2022/07/22 03:18:12;;;;;;;6.10;2.53;;;16.50;99.90;;;;;;5010780;28;20046;-72
2022/07/22 03:20:38;;;;;;;7.82;2.95;;;16.40;99.90;;;;;;5011246;28;20025;-71
2022/07/22 03:23:03;;;;;;;6.50;2.20;;;16.50;99.90;;;;;;4986628;28;20054;-72
2022/07/22 03:25:30;;;;;;;9.95;3.17;;;16.30;99.90;;;;;;5002382;28;20133;-71
2022/07/22 03:27:56;;;;;;;6.63;2.63;;;16.40;99.90;;;;;;5002153;28;20022;-72
2022/07/22 03:30:22;;;;;;;4.78;2.20;;;16.50;99.90;;;;;;5010890;28;20026;-71
2022/07/22 03:32:48;;;;;;;7.38;1.98;;;16.40;99.90;;;;;;4992641;28;20022;-72
2022/07/22 03:35:14;;;;;;;5.60;2.90;;;16.50;99.90;;;;;;4991412;28;20479;-72
2022/07/22 03:37:40;;;;;;;5.72;3.00;;;16.30;99.90;;;;;;5000779;28;20074;-72
2022/07/22 03:40:06;;;;;;;7.28;3.00;;;16.40;99.90;;;;;;5011389;28;20524;-71
2022/07/22 03:42:32;;;;;;;5.00;2.45;;;16.40;99.90;;;;;;5010713;28;20145;-72
2022/07/22 03:44:58;;;;;;;4.72;2.30;;;16.60;99.90;;;;;;5004762;28;20483;-72
2022/07/22 03:47:24;;;;;;;6.05;2.50;;;16.50;99.90;;;;;;5002360;28;20045;-71
2022/07/22 03:49:50;;;;;;;6.22;1.92;;;16.40;99.90;;;;;;4997548;28;20033;-72
2022/07/22 03:52:16;;;;;;;8.27;3.13;;;16.40;99.90;;;;;;5010990;28;20417;-72
2022/07/22 03:54:42;;;;;;;6.20;2.65;;;16.20;99.90;;;;;;5011127;28;20026;-72
2022/07/22 03:57:08;;;;;;;7.90;2.78;;;16.50;99.90;;;;;;5011167;28;20393;-71
2022/07/22 03:59:34;;;;;;;8.48;2.60;;;16.60;99.90;;;;;;5009486;28;20117;-71
2022/07/22 04:02:01;;;;;;;6.68;2.28;;;16.70;99.90;;;;;;4997903;28;20022;-71
2022/07/22 04:04:26;;;;;;;3.97;2.70;;;16.50;99.90;;;;;;5002867;28;20037;-71
2022/07/22 04:06:52;;;;;;;8.30;1.95;;;17.10;99.90;;;;;;5010010;28;20029;-71
2022/07/22 04:09:18;;;;;;;8.10;2.13;;;16.50;99.90;;;;;;5010583;28;20033;-71
2022/07/22 04:11:43;;;;;;;2.92;2.00;;;16.70;99.90;;;;;;5010800;28;20026;-71
2022/07/22 04:14:09;;;;;;;3.53;2.20;;;16.50;99.90;;;;;;5010877;28;20040;-71
2022/07/22 04:16:35;;;;;;;4.82;2.42;;;16.60;99.90;;;;;;5009879;28;20391;-71
2022/07/22 04:19:04;;;;;;;3.92;2.03;;;16.60;99.90;;;;;;5010984;28;20777;-71
2022/07/22 04:21:30;;;;;;;5.05;2.17;;;16.50;99.90;;;;;;5010231;28;20029;-71
2022/07/22 04:23:56;;;;;;;4.00;2.60;;;16.60;99.90;;;;;;4992733;28;20053;-71
2022/07/22 04:26:22;;;;;;;6.13;2.75;;;16.50;99.90;;;;;;5010184;28;20034;-71
2022/07/22 04:28:48;;;;;;;3.42;2.20;;;16.40;99.90;;;;;;4996743;28;20536;-71
2022/07/22 04:31:14;;;;;;;6.03;3.22;;;16.40;99.90;;;;;;5009560;28;20064;-71
2022/07/22 04:33:39;;;;;;;3.47;2.40;;;16.60;99.90;;;;;;5006708;28;20042;-71
2022/07/22 04:36:05;;;;;;;5.95;3.63;;;16.50;99.90;;;;;;5008090;28;20025;-71
2022/07/22 04:38:30;;;;;;;9.00;2.67;;;16.50;99.90;;;;;;5010020;28;20051;-71
2022/07/22 04:40:56;;;;;;;6.97;3.00;;;16.60;99.90;;;;;;5008717;28;20032;-71
2022/07/22 04:43:22;;;;;;;12.23;4.55;;;16.40;99.90;;;;;;4997864;28;20026;-71
2022/07/22 04:45:48;;;;;;;8.52;4.03;;;16.70;99.90;;;;;;5009720;28;20610;-71
2022/07/22 04:48:13;;;;;;;8.93;3.65;;;16.60;99.90;;;;;;5009865;28;20021;-71
2022/07/22 04:50:39;;;;;;;10.32;4.10;;;16.70;99.90;;;;;;5010123;28;20022;-72
2022/07/22 04:53:04;;;;;;;13.73;4.97;;;16.60;99.90;;;;;;5006776;28;20081;-71
2022/07/22 04:55:30;;;;;;;6.75;3.70;;;16.60;99.90;;;;;;4999743;28;20105;-71
2022/07/22 04:57:56;;;;;;;7.82;3.58;;;16.60;99.90;;;;;;5009962;28;20122;-71
2022/07/22 05:00:22;;;;;;;5.03;3.22;;;16.60;99.90;;;;;;5009309;28;20113;-71
2022/07/22 05:02:48;;;;;;;6.72;3.03;;;16.70;99.90;;;;;;5009988;28;20041;-71
2022/07/22 05:05:13;;;;;;;5.53;3.17;;;16.70;99.90;;;;;;4999152;28;20046;-72
2022/07/22 05:07:39;;;;;;;7.22;4.18;;;16.80;99.90;;;;;;5009914;28;20501;-71
2022/07/22 05:10:05;;;;;;;7.82;3.95;;;16.90;99.90;;;;;;5009945;28;20040;-71
2022/07/22 05:12:31;;;;;;;5.38;3.20;;;16.30;99.90;;;;;;5009720;28;20034;-71
2022/07/22 05:14:56;;;;;;;9.95;2.47;;;16.90;99.90;;;;;;5009624;28;20026;-71
2022/07/22 05:17:22;;;;;;;6.90;2.60;;;16.90;99.90;;;;;;5009529;28;20044;-71
2022/07/22 05:19:47;;;;;;;3.80;2.35;;;16.80;99.90;;;;;;4997899;28;20406;-71
2022/07/22 05:22:13;;;;;;;5.60;3.67;;;16.90;99.90;;;;;;5013104;28;20457;-71
2022/07/22 05:24:38;;;;;;;6.20;2.85;;;16.80;99.90;;;;;;5014553;28;20076;-71
2022/07/22 05:27:04;;;;;;;7.25;3.10;;;18.10;99.90;;;;;;5011309;28;20061;-70
2022/07/22 05:29:30;;;;;;;7.78;2.25;;;16.90;99.90;;;;;;5002474;28;20038;-71
2022/07/22 05:31:56;;;;;;;5.20;1.92;;;16.90;99.90;;;;;;5013863;28;20359;-71
2022/07/22 05:34:22;;;;;;;6.60;2.13;;;16.70;99.90;;;;;;5013282;28;20108;-71
2022/07/22 05:36:48;;;;;;;7.30;2.30;;;;;;;;;;5013536;28;20072;-71
2022/07/22 05:39:13;;;;;;;3.63;1.38;;;16.70;99.90;;;;;;5013278;28;20038;-71
2022/07/22 05:41:39;;;;;;;8.07;1.40;;;16.90;99.90;;;;;;5010042;28;20026;-70
2022/07/22 05:44:05;;;;;;;12.13;2.28;;;18.00;99.90;;;;;;5003965;28;20112;-71
2022/07/22 05:46:31;;;;;;;5.50;2.20;;;16.80;99.90;;;;;;5013423;28;20114;-71
2022/07/22 05:48:57;;;;;;;4.15;1.65;;;16.90;99.90;;;;;;5013509;28;20112;-71
2022/07/22 05:51:23;;;;;;;4.63;1.70;;;16.90;99.90;;;;;;5006531;28;20106;-71
2022/07/22 05:53:48;;;;;;;8.10;2.05;;;17.00;99.90;;;;;;5013326;28;20034;-71
2022/07/22 05:56:14;;;;;;;6.47;1.55;;;17.30;99.90;;;;;;5012976;28;20049;-71
2022/07/22 05:58:41;;;;;;;4.18;2.15;;;17.30;99.90;;;;;;4998712;28;20034;-71
2022/07/22 06:01:07;;;;;;;3.72;1.38;;;17.10;99.90;;;;;;5013289;28;20025;-71
2022/07/22 06:03:33;;;;;;;5.38;1.40;;;17.70;99.90;;;;;;5012575;28;20040;-71
2022/07/22 06:06:01;;;;;;;4.90;1.50;;;17.30;99.90;;;;;;5013088;28;20402;-71
2022/07/22 06:08:27;;;;;;;5.28;1.70;;;17.50;99.90;;;;;;5012217;28;20025;-72
2022/07/22 06:10:52;;;;;;;5.47;1.88;;;17.40;99.90;;;;;;4999832;28;20024;-71
2022/07/22 06:13:18;;;;;;;4.38;2.03;;;17.50;99.90;;;;;;4999717;28;20113;-72
2022/07/22 06:15:43;;;;;;;3.53;2.05;;;17.40;99.90;;;;;;5011231;28;20109;-71
2022/07/22 06:18:09;;;;;;;4.53;1.88;;;17.40;99.90;;;;;;4995258;28;20029;-71
2022/07/22 06:20:35;;;;;;;8.93;1.83;;;17.50;99.90;;;;;;4996673;28;20117;-71
2022/07/22 06:23:01;;;;;;;6.45;1.50;;;17.50;99.90;;;;;;4992876;28;20429;-71
2022/07/22 06:25:26;;;;;;;3.75;1.98;;;17.60;99.90;;;;;;4992076;28;20026;-71
2022/07/22 06:27:52;;;;;;;8.35;2.50;;;17.70;99.90;;;;;;4993162;28;20027;-71
2022/07/22 06:30:18;;;;;;;8.95;2.35;;;17.60;99.90;;;;;;4992015;28;20104;-72
2022/07/22 06:32:43;;;;;;;4.85;1.48;;;17.30;99.90;;;;;;4981894;28;20575;-71
2022/07/22 06:35:09;;;;;;;7.38;1.60;;;17.50;99.90;;;;;;5012527;28;20029;-71
2022/07/22 06:37:35;;;;;;;3.35;1.15;;;18.90;99.90;;;;;;5012081;28;20049;-72
2022/07/22 06:40:00;;;;;;;4.55;1.42;;;17.60;99.90;;;;;;5012142;28;20033;-71
2022/07/22 06:42:26;;;;;;;6.95;2.00;;;17.60;99.90;;;;;;4998351;28;20080;-71
2022/07/22 06:44:52;;;;;;;5.28;2.00;;;17.50;99.90;;;;;;4985186;28;20072;-73
2022/07/22 06:47:17;;;;;;;5.07;1.67;;;17.60;99.90;;;;;;5011675;28;20435;-73
2022/07/22 06:49:43;;;;;;;3.83;1.55;;;17.70;99.90;;;;;;5012277;28;20030;-73
2022/07/22 06:52:08;;;;;;;6.13;1.77;;;17.60;99.90;;;;;;5010501;28;20042;-73
2022/07/22 06:54:34;;;;;;;7.18;2.08;;;16.10;99.90;;;;;;4980012;28;20022;-73
2022/07/22 06:56:59;;;;;;;2.53;1.38;;;17.70;99.90;;;;;;5011897;28;20095;-73
2022/07/22 06:59:25;;;;;;;2.80;1.30;;;17.80;99.90;;;;;;4995137;28;20029;-73
2022/07/22 07:01:50;;;;;;;5.30;1.40;;;17.70;99.90;;;;;;4998774;28;20577;-73
2022/07/22 07:04:18;;;;;;;3.72;1.15;;;18.00;99.90;;;;;;4989188;28;20022;-72
2022/07/22 07:06:44;;;;;;;4.30;1.45;;;17.90;99.90;;;;;;5000855;28;20541;-72
2022/07/22 07:09:10;;;;;;;3.00;1.48;;;20.10;99.90;;;;;;5001354;28;20471;-72
2022/07/22 07:11:35;;;;;;;3.47;1.48;;;17.90;99.90;;;;;;4992462;28;20105;-72
2022/07/22 07:14:01;;;;;;;6.72;1.42;;;18.00;99.90;;;;;;4994065;28;20105;-71
2022/07/22 07:16:27;;;;;;;4.20;1.20;;;18.10;99.90;;;;;;4995395;28;20117;-72
2022/07/22 07:18:52;;;;;;;3.92;1.20;;;18.40;99.90;;;;;;4990834;28;20411;-71
2022/07/22 07:21:18;;;;;;;4.78;1.45;;;18.30;99.90;;;;;;4983031;28;20019;-72
2022/07/22 07:23:44;;;;;;;6.25;1.20;;;18.50;99.90;;;;;;4991069;28;20076;-72
2022/07/22 07:26:09;;;;;;;5.45;1.50;;;18.60;99.90;;;;;;4989314;28;20093;-72
2022/07/22 07:28:35;;;;;;;2.50;0.90;;;19.90;99.90;;;;;;4988889;28;20018;-73
2022/07/22 07:31:01;;;;;;;2.28;1.05;;;18.80;99.90;;;;;;4994029;28;20156;-74
2022/07/22 07:33:26;;;;;;;5.90;0.98;;;18.80;99.90;;;;;;5009799;28;20451;-73
2022/07/22 07:35:52;;;;;;;5.75;1.20;;;19.00;99.90;;;;;;5008097;28;20030;-73
2022/07/22 07:38:18;;;;;;;5.00;1.30;;;19.10;99.90;;;;;;4995821;28;20038;-72
2022/07/22 07:40:43;;;;;;;4.97;1.10;;;19.10;99.90;;;;;;5004209;28;20030;-72
2022/07/22 07:43:09;;;;;;;5.10;1.55;;;19.00;99.90;;;;;;4995022;28;20443;-72
2022/07/22 07:45:35;;;;;;;9.27;2.03;;;19.00;99.90;;;;;;4993480;28;20054;-72
2022/07/22 07:48:01;;;;;;;2.88;1.05;;;18.80;99.90;;;;;;4997809;28;20034;-72
2022/07/22 07:50:26;;;;;;;3.38;1.00;;;18.80;99.90;;;;;;4991130;28;20472;-72
2022/07/22 07:52:52;;;;;;;4.88;1.30;;;18.90;99.90;;;;;;4991321;28;20034;-71
2022/07/22 07:55:18;;;;;;;3.83;1.30;;;19.00;99.90;;;;;;4997452;28;20427;-72
2022/07/22 07:57:46;;;;;;;3.05;1.27;;;19.10;99.90;;;;;;4991451;28;20066;-72
2022/07/22 08:00:12;;;;;;;4.63;1.30;;;19.00;99.90;;;;;;4991195;28;20170;-72
2022/07/22 08:02:38;;;;;;;7.30;1.20;;;19.30;99.90;;;;;;5005757;28;20514;-72
2022/07/22 08:05:05;;;;;;;5.13;1.00;;;19.30;99.90;;;;;;5007099;28;20033;-73
2022/07/22 08:07:30;;;;;;;2.45;1.08;;;19.40;99.90;;;;;;5000582;28;20018;-73
2022/07/22 08:09:56;;;;;;;4.15;0.85;;;19.50;99.90;;;;;;4991408;28;20042;-73
2022/07/22 08:12:21;;;;;;;5.72;1.85;;;19.30;99.90;;;;;;4990594;28;20026;-73
2022/07/22 08:14:47;;;;;;;3.30;0.98;;;19.60;99.90;;;;;;4992575;28;20483;-73
2022/07/22 08:17:13;;;;;;;2.72;1.08;;;19.50;99.90;;;;;;4992817;28;20042;-72
2022/07/22 08:19:38;;;;;;;2.60;1.13;;;19.20;99.90;;;;;;4992777;28;20411;-72
2022/07/22 08:22:04;;;;;;;5.50;1.45;;;19.40;99.90;;;;;;4990395;28;20057;-72
2022/07/22 08:24:29;;;;;;;3.95;1.08;;;19.60;99.90;;;;;;4992180;28;20057;-71
2022/07/22 08:26:55;;;;;;;6.75;1.40;;;19.60;99.90;;;;;;4990966;28;20026;-71
2022/07/22 08:29:20;;;;;;;2.78;1.33;;;19.80;99.90;;;;;;4992740;28;20022;-71
2022/07/22 08:31:46;;;;;;;1.90;0.93;;;20.00;99.90;;;;;;5001116;28;20030;-71
2022/07/22 08:34:12;;;;;;;4.25;1.23;;;20.10;99.90;;;;;;5001115;28;20073;-71
2022/07/22 08:36:37;;;;;;;1.80;1.00;;;20.20;99.90;;;;;;5001814;28;20517;-73
2022/07/22 08:39:03;;;;;;;5.57;1.35;;;20.30;99.70;;;;;;5004276;28;20057;-73
2022/07/22 08:41:34;;;;;;;4.10;1.50;;;20.40;99.60;;;;;;5009777;28;20057;-72
2022/07/22 08:44:00;;;;;;;3.67;1.40;;;20.30;99.50;;;;;;5008176;28;20435;-72
2022/07/22 08:46:25;;;;;;;2.88;1.27;;;20.30;99.00;;;;;;5004569;28;20026;-72
2022/07/22 08:48:51;;;;;;;5.68;2.05;;;20.40;99.00;;;;;;4991060;28;20061;-72
2022/07/22 08:51:19;;;;;;;3.85;1.55;;;20.60;98.90;;;;;;5006301;28;20033;-72
2022/07/22 08:53:45;;;;;;;2.67;1.13;;;20.40;98.80;;;;;;5000788;28;20057;-72
2022/07/22 08:56:13;;;;;;;6.72;1.05;;;20.50;98.80;;;;;;5003614;28;20479;-72
2022/07/22 08:58:38;;;;;;;5.88;1.60;;;20.40;99.00;;;;;;4990376;28;20042;-72
2022/07/22 09:01:15;;;;;;;2.75;0.93;;;20.40;98.60;;;;;;4990572;28;20022;-72
2022/07/22 09:03:49;;;;;;;3.63;1.50;;;20.60;98.80;;;;;;4983323;28;20394;-72
2022/07/22 09:06:19;;;;;;;3.90;1.33;;;20.70;99.10;;;;;;4989459;28;20030;-72
2022/07/22 09:09:03;;;;;;;2.97;1.40;;;20.80;98.90;;;;;;5003659;28;20026;-70
2022/07/22 09:11:30;;;;;;;3.22;1.63;;;20.70;98.10;;;;;;4990084;28;20054;-71
2022/07/22 09:13:58;;;;;;;7.18;1.52;;;20.70;98.40;;;;;;4990672;28;20109;-71
2022/07/22 09:16:40;;;;;;;5.65;2.13;;;20.80;98.90;;;;;;4989812;28;20031;-71
2022/07/22 09:19:06;;;;;;;7.22;1.88;;;21.10;99.20;;;;;;4986523;28;20105;-71
2022/07/22 09:21:35;;;;;;;2.95;1.33;;;20.30;98.90;;;;;;5009352;28;20025;-71
2022/07/22 09:24:00;;;;;;;7.32;2.03;;;20.10;99.20;;;;;;5006748;28;20050;-71
2022/07/22 09:26:37;;;;;;;5.13;1.48;;;20.10;99.00;;;;;;4995036;28;20087;-71
2022/07/22 09:29:04;;;;;;;2.20;1.30;;;20.10;98.90;;;;;;5010497;28;20076;-71
2022/07/22 09:31:34;;;;;;;1.95;1.10;;;20.20;99.30;;;;;;4998526;28;20073;-72
2022/07/22 09:34:01;;;;;;;5.35;1.45;;;20.20;99.20;;;;;;4989067;28;20097;-72
2022/07/22 09:36:27;;;;;;;4.95;1.60;;;20.30;99.00;;;;;;4986933;28;20034;-72
2022/07/22 09:38:53;;;;;;;3.50;2.25;;;20.20;98.90;;;;;;4989937;28;20034;-72
2022/07/22 09:41:20;;;;;;;4.20;1.35;;;21.00;99.10;;;;;;4994367;28;20019;-73
2022/07/22 09:43:46;;;;;;;3.47;1.45;;;20.10;99.20;;;;;;4995108;28;20064;-73
2022/07/22 09:46:12;;;;;;;5.00;1.42;;;20.20;98.90;;;;;;4989551;28;20048;-73
2022/07/22 09:48:39;;;;;;;7.10;2.22;;;20.20;98.50;;;;;;4994556;28;20535;-72
2022/07/22 09:51:05;;;;;;;1.92;1.33;;;20.30;98.40;;;;;;4989585;28;20034;-72
2022/07/22 09:53:32;;;;;;;3.78;1.85;;;20.40;98.10;;;;;;4992047;28;20059;-72
2022/07/22 09:55:59;;;;;;;3.85;1.27;;;20.40;97.90;;;;;;4985168;28;20029;-71
2022/07/22 09:58:26;;;;;;;4.35;0.93;;;20.40;97.70;;;;;;4994345;28;20084;-72
2022/07/22 10:00:52;;;;;;;6.57;1.67;;;20.60;97.60;;;;;;4986208;28;20027;-72
2022/07/22 10:03:23;;;;;;;4.55;1.35;;;20.60;97.70;;;;;;5000232;28;20034;-72
2022/07/22 10:05:50;;;;;;;3.63;1.10;;;20.70;97.60;;;;;;5002979;28;20124;-72
2022/07/22 10:08:16;;;;;;;3.40;1.27;;;20.80;97.30;;;;;;5003228;28;20114;-73
2022/07/22 10:10:41;;;;;;;4.60;1.23;;;20.90;96.80;;;;;;4993064;28;20110;-73
2022/07/22 10:13:08;;;;;;;1.40;0.93;;;21.10;96.70;;;;;;5003789;28;20364;-73
2022/07/22 10:15:34;;;;;;;3.28;0.70;;;21.00;96.40;;;;;;5001982;28;20023;-73
2022/07/22 10:18:05;;;;;;;5.45;0.93;;;20.80;96.30;;;;;;5002475;28;20042;-72
2022/07/22 10:20:32;;;;;;;2.30;1.20;;;21.00;96.20;;;;;;4992556;28;20129;-73
2022/07/22 10:23:03;;;;;;;3.60;1.33;;;20.70;96.10;;;;;;4992234;28;20530;-73
2022/07/22 10:25:53;;;;;;;4.78;1.10;;;20.80;96.30;;;;;;5002360;28;20368;-73
2022/07/22 10:28:32;;;;;;;2.67;0.95;;;20.80;95.60;;;;;;4992431;28;20046;-73
2022/07/22 10:31:18;;;;;;;1.52;0.82;;;20.90;96.40;;;;;;4994899;28;20490;-73
2022/07/22 10:33:49;;;;;;;4.13;1.15;;;21.00;96.20;;;;;;4999640;28;20033;-72
2022/07/22 10:36:28;;;;;;;2.67;0.90;;;21.10;95.60;;;;;;4984963;28;20142;-72
2022/07/22 10:39:12;;;;;;;5.28;1.48;;;21.30;95.30;;;;;;4979695;28;20046;-72
2022/07/22 10:41:43;;;;;;;3.72;1.10;;;21.60;94.40;;;;;;4989604;28;20036;-72
2022/07/22 10:44:09;;;;;;;4.13;1.98;;;21.70;94.10;;;;;;4995268;28;20038;-72
2022/07/22 10:46:55;;;;;;;4.40;0.93;;;21.70;94.30;;;;;;4997160;28;20645;-72
2022/07/22 10:49:24;;;;;;;5.55;0.95;;;21.80;93.60;;;;;;4990676;28;20026;-72
2022/07/22 10:52:21;;;;;;;2.28;0.93;;;21.80;94.00;;;;;;4992559;28;20037;-72
2022/07/22 10:55:19;;;;;;;1.83;0.85;;;21.90;93.10;;;;;;4994187;28;20034;-72
2022/07/22 10:57:44;;;;;;;4.50;1.00;;;22.20;93.00;;;;;;4992481;28;20034;-72
2022/07/22 11:00:10;;;;;;;6.38;1.17;;;21.80;93.20;;;;;;4991877;28;20349;-72
2022/07/22 11:02:37;;;;;;;2.90;1.20;;;22.00;93.10;;;;;;4996561;28;20045;-72
2022/07/22 11:05:03;;;;;;;3.95;1.63;;;22.20;93.40;;;;;;4994031;28;20026;-72
2022/07/22 11:07:30;;;;;;;6.05;1.48;;;22.40;93.00;;;;;;5001852;28;20036;-72
2022/07/22 11:10:16;;;;;;;2.65;0.80;;;22.60;93.00;;;;;;4993108;28;20026;-72
2022/07/22 11:12:42;;;;;;;3.13;1.02;;;22.60;92.30;;;;;;5001693;28;20029;-72
2022/07/22 11:15:08;;;;;;;4.28;1.30;;;22.50;92.90;;;;;;4990730;28;20034;-72
2022/07/22 11:17:38;;;;;;;1.45;0.85;;;22.70;92.50;;;;;;4984083;28;20041;-72
2022/07/22 11:20:07;;;;;;;3.13;1.15;;;22.60;92.60;;;;;;4997224;28;20135;-73
2022/07/22 11:22:33;;;;;;;4.45;0.90;;;;;;;;;;4991276;28;20030;-72
2022/07/22 11:25:05;;;;;;;3.92;1.00;;;22.50;91.20;;;;;;4991703;28;20039;-72
2022/07/22 11:27:30;;;;;;;1.85;1.42;;;22.40;92.20;;;;;;4998323;28;20026;-72
2022/07/22 11:29:57;;;;;;;2.70;1.20;;;22.40;92.00;;;;;;4990789;28;20109;-72
2022/07/22 11:32:24;;;;;;;4.47;0.95;;;24.00;91.80;;;;;;4994772;28;20030;-72
2022/07/22 11:34:51;;;;;;;3.63;1.20;;;22.50;92.00;;;;;;4992392;28;20030;-72
2022/07/22 11:37:20;;;;;;;4.00;0.95;;;21.20;91.40;;;;;;4995560;28;20042;-72
2022/07/22 11:39:46;;;;;;;1.77;0.90;;;22.60;91.70;;;;;;4996329;28;20026;-72
2022/07/22 11:42:12;;;;;;;3.53;1.13;;;22.60;91.60;;;;;;4990933;28;20026;-74
2022/07/22 11:44:38;;;;;;;2.45;0.77;;;22.80;91.60;;;;;;4990631;28;20081;-74
2022/07/22 11:47:06;;;;;;;5.65;1.65;;;22.90;91.40;;;;;;4995568;28;20030;-74
2022/07/22 11:49:33;;;;;;;2.13;1.27;;;23.10;91.40;;;;;;4992900;28;20108;-73
2022/07/22 11:52:00;;;;;;;3.08;1.33;;;23.30;91.30;;;;;;4998609;28;20026;-74
2022/07/22 11:54:26;;;;;;;2.20;1.00;;;23.50;91.30;;;;;;4994481;28;20033;-74
2022/07/22 11:56:52;;;;;;;1.58;0.88;;;23.50;90.90;;;;;;4985238;28;20038;-73
2022/07/22 11:59:18;;;;;;;2.45;1.08;;;23.60;90.80;;;;;;4990365;28;20030;-74
2022/07/22 12:01:46;;;;;;;4.07;1.25;;;23.60;90.50;;;;;;4993121;28;20124;-74
2022/07/22 12:04:18;;;;;;;5.93;1.77;;;23.70;90.50;;;;;;4973193;28;20452;-74
2022/07/22 12:06:45;;;;;;;0.80;0.80;;;23.40;90.30;;;;;;4989760;28;20065;-74
2022/07/22 12:09:21;;;;;;;3.22;1.40;;;23.40;90.40;;;;;;4991023;28;20031;-78
2022/07/22 12:11:49;;;;;;;2.50;0.82;;;23.20;90.20;;;;;;5006849;28;20033;-73
2022/07/22 12:14:21;;;;;;;2.65;0.80;;;23.20;90.30;;;;;;5008533;28;20112;-72
2022/07/22 12:16:56;;;;;;;3.45;1.33;;;23.20;89.10;;;;;;4990095;28;20039;-70
2022/07/22 12:19:23;;;;;;;4.20;1.10;;;23.30;90.30;;;;;;4990701;28;20050;-71
2022/07/22 12:22:03;;;;;;;2.35;1.00;;;23.40;89.70;;;;;;4975506;28;20038;-70
2022/07/22 12:24:38;;;;;;;4.15;1.70;;;23.40;88.60;;;;;;4983428;28;20057;-70
2022/07/22 12:27:05;;;;;;;3.80;1.30;;;23.30;87.80;;;;;;4984663;28;20089;-70
2022/07/22 12:29:37;;;;;;;3.40;1.90;;;24.20;89.70;;;;;;4979983;28;20034;-71
2022/07/22 12:32:23;;;;;;;3.88;1.73;;;23.30;89.00;;;;;;4992206;28;20030;-70
2022/07/22 12:35:02;;;;;;;2.47;1.08;;;23.10;87.70;;;;;;4988584;28;20550;-71
2022/07/22 12:37:33;;;;;;;1.60;0.90;;;23.10;87.80;;;;;;4988488;28;20084;-71
2022/07/22 12:40:15;;;;;;;3.28;0.95;;;23.20;87.50;;;;;;4986449;28;20066;-74
2022/07/22 12:42:43;;;;;;;7.10;1.40;;;23.10;87.40;;;;;;4992628;28;20030;-72
2022/07/22 12:45:11;;;;;;;4.00;1.20;;;23.00;89.20;;;;;;4990557;28;20064;-73
2022/07/22 12:47:45;;;;;;;3.42;1.20;;;22.80;89.10;;;;;;4990198;28;20471;-73